Weather History for Fort Collins, CO

Change the Weather History Date:

Sunday, January 20, 2013

  Actual Average Record
Temperature  
Mean Temperature 30 °F -  
Max Temperature 44 °F 41 °F 66 °F (2005)
Min Temperature 17 °F 17 °F 3 °F (2007)
Degree Days  
Heating Degree Days 34    
Moisture  
Dew Point 13 °F    
Average Humidity 49    
Maximum Humidity 80    
Minimum Humidity 27    
Precipitation  
Precipitation 0.00 in - - ()
Sea Level Pressure  
Sea Level Pressure 30.21 in    
Wind  
Wind Speed 5 mph (ENE)    
Max Wind Speed 17 mph    
Max Gust Speed 24 mph    
Visibility 10 miles    
Events      
Averages and records for this station are not official NWS values.
T = Trace of Precipitation, MM = Missing Value Source: NWS Daily Summary

Daily Weather History Graph

Daily Weather History Graph

Search for Another Location

Airport:

Trip Planner

Search our weather history database for the weather conditions in past years. The results will help you decide how hot, cold, wet, or windy it might be!

Date:

Astronomy

Jan. 20, 2013 Rise Set
Actual Time 7:18 AM MST 5:04 PM MST
Civil Twilight 6:48 AM MST 5:33 PM MST
Nautical Twilight 6:15 AM MST 6:07 PM MST
Astronomical Twilight 5:43 AM MST 6:39 PM MST
Moon 12:06 PM MST (1/20) 1:53 AM MST (1/20)
Length of Visible Light 10h 44m
Length of Day
9h 45m
Waxing Gibbous, 67% of the Moon is Illuminated
Jan 20
Waxing Gibbous
Jan 26
Full
Feb 3
Last Quarter
Feb 10
New
Feb 17
First Quarter

Hourly Weather History & Observations

Time (MST) Temp. Windchill Dew Point Humidity Pressure Visibility Wind Dir Wind Speed Gust Speed Precip Events Conditions
12:15 AM 33.8 °F - 12.2 °F 41% 30.17 in 10.0 mi Calm Calm - N/A   Clear
12:35 AM 33.8 °F 29.6 °F 10.4 °F 38% 30.17 in 10.0 mi SW 4.6 mph - N/A   Clear
12:55 AM 30.2 °F - 12.2 °F 47% 30.17 in 10.0 mi Calm Calm - N/A   Clear
1:35 AM 30.2 °F - 10.4 °F 44% 30.17 in 10.0 mi Calm Calm - N/A   Clear
1:55 AM 30.2 °F 26.7 °F 10.4 °F 44% 30.16 in 10.0 mi South 3.5 mph - N/A   Clear
2:15 AM 30.2 °F - 10.4 °F 44% 30.15 in 10.0 mi Calm Calm - N/A   Clear
2:35 AM 26.6 °F - 10.4 °F 51% 30.14 in 10.0 mi Calm Calm - N/A   Clear
2:55 AM 28.4 °F - 10.4 °F 47% 30.14 in 10.0 mi Calm Calm - N/A   Clear
3:15 AM 28.4 °F - 10.4 °F 47% 30.14 in 10.0 mi Calm Calm - N/A   Clear
3:35 AM 24.8 °F 19.1 °F 10.4 °F 54% 30.13 in 10.0 mi NNE 4.6 mph - N/A   Clear
3:55 AM 24.8 °F 16.1 °F 10.4 °F 54% 30.13 in 10.0 mi NNE 8.1 mph - N/A   Clear
4:15 AM 24.8 °F 16.9 °F 12.2 °F 59% 30.13 in 10.0 mi North 6.9 mph - N/A   Clear
4:35 AM 24.8 °F 16.9 °F 12.2 °F 59% 30.14 in 10.0 mi North 6.9 mph - N/A   Clear
4:55 AM 24.8 °F 19.1 °F 12.2 °F 59% 30.14 in 10.0 mi NNE 4.6 mph - N/A   Clear
5:15 AM 24.8 °F 19.1 °F 12.2 °F 59% 30.14 in 10.0 mi North 4.6 mph - N/A   Clear
6:15 AM 17.6 °F - 10.4 °F 73% 30.17 in 10.0 mi Calm Calm - N/A   Clear
6:35 AM 21.2 °F - 12.2 °F 68% 30.18 in 10.0 mi Calm Calm - N/A   Clear
6:55 AM 21.2 °F 12.6 °F 12.2 °F 68% 30.18 in 10.0 mi South 6.9 mph - N/A   Clear
7:15 AM 21.2 °F 10.1 °F 12.2 °F 68% 30.18 in 10.0 mi South 10.4 mph - N/A   Clear
7:35 AM 24.8 °F 15.3 °F 15.8 °F 69% 30.19 in 10.0 mi ESE 9.2 mph - N/A   Clear
7:55 AM 24.8 °F 16.9 °F 12.2 °F 59% 30.20 in 10.0 mi SSE 6.9 mph - N/A   Clear
8:15 AM 28.4 °F 21.2 °F 12.2 °F 51% 30.21 in 10.0 mi ESE 6.9 mph - N/A   Clear
8:35 AM 30.2 °F 24.3 °F 12.2 °F 47% 30.22 in 10.0 mi South 5.8 mph - N/A   Clear
8:55 AM 30.2 °F 23.4 °F 15.8 °F 55% 30.22 in 10.0 mi SW 6.9 mph - N/A   Clear
9:15 AM 33.8 °F 28.6 °F 15.8 °F 48% 30.23 in 10.0 mi South 5.8 mph - N/A   Clear
9:35 AM 35.6 °F 29.2 °F 15.8 °F 44% 30.24 in 10.0 mi West 8.1 mph - N/A   Clear
9:55 AM 39.2 °F - 15.8 °F 39% 30.25 in 10.0 mi Calm Calm - N/A   Clear
10:15 AM 42.8 °F 39.3 °F 15.8 °F 34% 30.25 in 10.0 mi SSE 5.8 mph - N/A   Clear
10:35 AM 44.6 °F 40.2 °F 15.8 °F 31% 30.25 in 10.0 mi ESE 8.1 mph - N/A   Clear
10:55 AM 44.6 °F 37.2 °F 15.8 °F 31% 30.25 in 10.0 mi ESE 17.3 mph - N/A   Clear
11:15 AM 44.6 °F 37.2 °F 12.2 °F 27% 30.25 in 10.0 mi East 17.3 mph - N/A   Clear
11:35 AM 44.6 °F 37.4 °F 14.0 °F 29% 30.24 in 10.0 mi ENE 16.1 mph 24.2 mph N/A   Clear
11:55 AM 44.6 °F 37.4 °F 12.2 °F 27% 30.24 in 10.0 mi NE 16.1 mph 21.9 mph N/A   Clear
12:15 PM 44.6 °F 37.4 °F 12.2 °F 27% 30.23 in 10.0 mi ENE 16.1 mph - N/A   Clear
12:35 PM 44.6 °F 39.7 °F 12.2 °F 27% 30.22 in 10.0 mi East 9.2 mph - N/A   Clear
12:55 PM 44.6 °F 40.7 °F 14.0 °F 29% 30.21 in 10.0 mi East 6.9 mph - N/A   Clear
1:15 PM 44.6 °F 40.2 °F 14.0 °F 29% 30.21 in 10.0 mi East 8.1 mph - N/A   Clear
1:35 PM 44.6 °F 39.2 °F 14.0 °F 29% 30.20 in 10.0 mi ESE 10.4 mph - N/A   Clear
1:55 PM 44.6 °F 40.2 °F 14.0 °F 29% 30.20 in 10.0 mi East 8.1 mph - N/A   Clear
2:35 PM 44.6 °F 39.2 °F 14.0 °F 29% 30.20 in 10.0 mi East 10.4 mph - N/A   Clear
2:55 PM 44.6 °F 39.2 °F 14.0 °F 29% 30.20 in 10.0 mi ESE 10.4 mph - N/A   Clear
3:15 PM 44.6 °F 39.7 °F 14.0 °F 29% 30.20 in 10.0 mi ESE 9.2 mph - N/A   Clear
3:35 PM 44.6 °F 39.7 °F 14.0 °F 29% 30.19 in 10.0 mi SE 9.2 mph - N/A   Clear
3:55 PM 44.6 °F 39.7 °F 14.0 °F 29% 30.19 in 10.0 mi SE 9.2 mph - N/A   Clear
4:15 PM 42.8 °F 38.6 °F 14.0 °F 31% 30.20 in 10.0 mi ESE 6.9 mph - N/A   Clear
4:35 PM 39.2 °F 34.2 °F 14.0 °F 36% 30.20 in 10.0 mi East 6.9 mph - N/A   Clear
4:55 PM 37.4 °F 31.4 °F 12.2 °F 36% 30.21 in 10.0 mi East 8.1 mph - N/A   Clear
5:15 PM 35.6 °F 29.9 °F 12.2 °F 38% 30.21 in 10.0 mi East 6.9 mph - N/A   Clear
5:35 PM 33.8 °F 27.0 °F 12.2 °F 41% 30.22 in 10.0 mi East 8.1 mph - N/A   Clear
6:35 PM 30.2 °F 23.4 °F 14.0 °F 51% 30.25 in 10.0 mi ESE 6.9 mph - N/A   Clear
6:55 PM 30.2 °F 22.6 °F 12.2 °F 47% 30.25 in 10.0 mi East 8.1 mph - N/A   Clear
7:15 PM 28.4 °F 23.3 °F 12.2 °F 51% 30.26 in 10.0 mi ENE 4.6 mph - N/A   Clear
7:35 PM 26.6 °F 20.0 °F 12.2 °F 55% 30.27 in 10.0 mi NNE 5.8 mph - N/A   Clear
7:55 PM 26.6 °F 21.2 °F 12.2 °F 55% 30.27 in 10.0 mi NNE 4.6 mph - N/A   Clear
8:15 PM 24.8 °F 17.9 °F 12.2 °F 59% 30.27 in 10.0 mi NE 5.8 mph - N/A   Clear
8:35 PM 24.8 °F 17.9 °F 12.2 °F 59% 30.27 in 10.0 mi NE 5.8 mph - N/A   Clear
8:55 PM 24.8 °F 16.9 °F 12.2 °F 59% 30.27 in 10.0 mi NNE 6.9 mph - N/A   Clear
9:15 PM 24.8 °F 15.3 °F 12.2 °F 59% 30.27 in 10.0 mi NNE 9.2 mph - N/A   Clear
9:35 PM 23.0 °F 14.7 °F 12.2 °F 63% 30.27 in 10.0 mi NNE 6.9 mph - N/A   Clear
9:55 PM 21.2 °F 13.6 °F 12.2 °F 68% 30.27 in 10.0 mi NNE 5.8 mph - N/A   Clear
10:15 PM 17.6 °F 9.3 °F 8.6 °F 68% 30.26 in 10.0 mi NW 5.8 mph - N/A   Clear
10:35 PM 17.6 °F 9.3 °F 12.2 °F 79% 30.26 in 10.0 mi NNW 5.8 mph - N/A   Clear
10:55 PM 19.4 °F 11.5 °F 14.0 °F 80% 30.26 in 10.0 mi North 5.8 mph - N/A   Clear
11:15 PM 19.4 °F 11.5 °F 14.0 °F 80% 30.25 in 10.0 mi North 5.8 mph - N/A   Clear
11:35 PM 21.2 °F 16.4 °F 15.8 °F 80% 30.23 in 10.0 mi NNE 3.5 mph - N/A   Clear
11:55 PM 19.4 °F 12.8 °F 14.0 °F 80% 30.23 in 10.0 mi North 4.6 mph - N/A   Clear